createdAt,value
2023-02-15T00:00:25.904Z,101161.50
2023-02-15T00:02:56.294Z,101165.13
2023-02-15T00:05:28.203Z,101171.88
2023-02-15T00:07:58.204Z,101177.44
2023-02-15T00:10:28.733Z,101173.84
2023-02-15T00:12:58.529Z,101172.22
2023-02-15T00:15:28.999Z,101171.06
2023-02-15T00:18:00.286Z,101173.00
2023-02-15T00:20:32.278Z,101175.00
2023-02-15T00:23:03.177Z,101174.16
2023-02-15T00:25:32.773Z,101173.34
2023-02-15T00:28:04.432Z,101167.75
2023-02-15T00:30:35.300Z,101174.50
2023-02-15T00:33:05.677Z,101176.44
2023-02-15T00:35:37.713Z,101179.25
2023-02-15T00:38:07.872Z,101180.41
2023-02-15T00:40:38.874Z,101186.81
2023-02-15T00:43:08.884Z,101191.59
2023-02-15T00:45:40.981Z,101189.09
2023-02-15T00:48:10.784Z,101193.88
2023-02-15T00:50:42.730Z,101184.66
2023-02-15T00:53:12.597Z,101187.28
2023-02-15T00:55:42.509Z,101187.91
2023-02-15T00:58:14.290Z,101188.59
2023-02-15T01:00:47.515Z,101187.28
2023-02-15T01:03:20.003Z,101187.41
2023-02-15T01:05:55.542Z,101190.03
2023-02-15T01:08:25.880Z,101183.13
2023-02-15T01:10:56.146Z,101188.19
2023-02-15T01:13:26.554Z,101185.72
2023-02-15T01:15:58.528Z,101187.69
2023-02-15T01:18:29.060Z,101185.22
2023-02-15T01:21:01.363Z,101189.97
2023-02-15T01:23:31.720Z,101185.22
2023-02-15T01:26:06.340Z,101190.47
2023-02-15T01:28:36.799Z,101185.22
2023-02-15T01:31:10.574Z,101186.88
2023-02-15T01:33:41.986Z,101186.03
2023-02-15T01:36:18.731Z,101193.91
2023-02-15T01:38:49.464Z,101188.66
2023-02-15T01:41:27.568Z,101190.63
2023-02-15T01:44:01.109Z,101200.16
2023-02-15T01:46:38.680Z,101199.31
2023-02-15T01:49:17.603Z,101203.56
2023-02-15T01:51:54.176Z,101204.72
2023-02-15T01:54:32.944Z,101200.63
2023-02-15T01:57:08.583Z,101198.97
2023-02-15T01:59:43.041Z,101196.50
2023-02-15T02:02:17.174Z,101204.03
2023-02-15T02:04:52.705Z,101203.53
2023-02-15T02:07:29.278Z,101201.88
2023-02-15T02:09:58.969Z,101203.06
2023-02-15T02:12:30.226Z,101196.97
2023-02-15T02:15:02.443Z,101200.91
2023-02-15T02:17:51.321Z,101197.25
2023-02-15T02:20:54.936Z,101197.59
2023-02-15T02:24:26.550Z,101202.97
2023-02-15T02:27:26.889Z,101196.88
2023-02-15T02:30:42.695Z,101200.00
2023-02-15T02:33:51.485Z,101194.72
2023-02-15T02:36:35.085Z,101191.94
2023-02-15T02:39:20.854Z,101194.72
2023-02-15T02:42:05.021Z,101190.28
2023-02-15T02:44:46.252Z,101190.28
2023-02-15T02:47:26.222Z,101197.03
2023-02-15T02:50:04.811Z,101194.25
2023-02-15T02:52:45.275Z,101193.72
2023-02-15T02:55:23.900Z,101197.66
2023-02-15T02:58:02.543Z,101199.94
2023-02-15T03:00:38.227Z,101209.44
2023-02-15T03:03:16.552Z,101205.84
2023-02-15T03:05:54.476Z,101207.78
2023-02-15T03:08:32.539Z,101215.66
2023-02-15T03:11:06.807Z,101218.78
2023-02-15T03:13:38.093Z,101224.34
2023-02-15T03:16:30.652Z,101222.69
2023-02-15T03:19:09.778Z,101228.94
2023-02-15T03:21:50.719Z,101229.22
2023-02-15T03:24:27.418Z,101241.03
2023-02-15T03:27:00.252Z,101237.75
2023-02-15T03:29:33.801Z,101238.38
2023-02-15T03:32:10.615Z,101248.72
2023-02-15T03:34:40.649Z,101253.78
2023-02-15T03:37:24.193Z,101258.22
2023-02-15T03:40:21.684Z,101256.84
2023-02-15T03:43:00.077Z,101263.59
2023-02-15T03:45:36.701Z,101263.91
2023-02-15T03:48:10.200Z,101262.25
2023-02-15T03:50:59.606Z,101263.09
2023-02-15T03:53:31.894Z,101271.75
2023-02-15T03:56:02.174Z,101266.16
2023-02-15T03:58:49.040Z,101274.22
2023-02-15T04:01:59.192Z,101272.88
2023-02-15T04:04:38.282Z,101271.56
2023-02-15T04:07:10.659Z,101278.25
2023-02-15T04:09:59.710Z,101271.88
2023-02-15T04:12:29.992Z,101279.41
2023-02-15T04:15:17.014Z,101278.59
2023-02-15T04:17:46.970Z,101291.38
2023-02-15T04:20:34.141Z,101293.03
2023-02-15T04:23:21.291Z,101298.63
2023-02-15T04:25:53.651Z,101295.00
2023-02-15T04:28:24.133Z,101298.91
2023-02-15T04:30:54.380Z,101296.13
2023-02-15T04:33:24.858Z,101304.50
2023-02-15T04:35:55.081Z,101301.22
2023-02-15T04:38:25.670Z,101307.09
2023-02-15T04:41:01.500Z,101318.22
2023-02-15T04:43:31.176Z,101317.72
2023-02-15T04:46:02.013Z,101320.50
2023-02-15T04:48:32.327Z,101326.91
2023-02-15T04:51:01.913Z,101326.06
2023-02-15T04:53:31.787Z,101328.88
2023-02-15T04:56:04.466Z,101336.41
2023-02-15T04:58:34.875Z,101336.75
2023-02-15T05:01:04.639Z,101345.91
2023-02-15T05:03:34.950Z,101346.25
2023-02-15T05:06:05.563Z,101353.28
2023-02-15T05:08:35.948Z,101358.31
2023-02-15T05:11:07.942Z,101353.88
2023-02-15T05:13:37.883Z,101349.78
2023-02-15T05:16:08.556Z,101356.47
2023-02-15T05:18:38.500Z,101360.41
2023-02-15T05:21:08.951Z,101363.47
2023-02-15T05:23:39.303Z,101368.75
2023-02-15T05:26:31.385Z,101370.41
2023-02-15T05:29:01.140Z,101368.94
2023-02-15T05:31:31.300Z,101365.22
2023-02-15T05:34:01.889Z,101365.31
2023-02-15T05:36:32.230Z,101375.91
2023-02-15T05:39:02.619Z,101378.16
2023-02-15T05:41:34.989Z,101380.59
2023-02-15T05:44:05.337Z,101376.13
2023-02-15T05:46:35.772Z,101390.53
2023-02-15T05:49:06.321Z,101386.53
2023-02-15T05:51:36.357Z,101380.06
2023-02-15T05:54:06.845Z,101384.22
2023-02-15T05:56:38.431Z,101394.91
2023-02-15T05:59:08.877Z,101386.75
2023-02-15T06:01:39.745Z,101393.66
2023-02-15T06:04:09.953Z,101403.97
2023-02-15T06:06:40.077Z,101408.25
2023-02-15T06:09:10.583Z,101406.94
2023-02-15T06:11:42.826Z,101416.25
2023-02-15T06:14:13.154Z,101424.75
2023-02-15T06:16:43.547Z,101420.97
2023-02-15T06:19:13.508Z,101421.94
2023-02-15T06:21:43.493Z,101427.00
2023-02-15T06:24:14.170Z,101431.25
2023-02-15T06:26:46.697Z,101428.75
2023-02-15T06:29:17.254Z,101441.59
2023-02-15T06:31:47.695Z,101437.66
2023-02-15T06:34:18.380Z,101439.31
2023-02-15T06:36:48.655Z,101441.28
2023-02-15T06:39:18.638Z,101444.88
2023-02-15T06:41:51.020Z,101447.34
2023-02-15T06:44:21.462Z,101438.97
2023-02-15T06:46:51.797Z,101442.59
2023-02-15T06:49:22.001Z,101438.16
2023-02-15T06:51:51.650Z,101431.75
2023-02-15T06:54:22.191Z,101433.72
2023-02-15T06:56:54.536Z,101426.16
2023-02-15T06:59:24.411Z,101430.78
2023-02-15T07:01:54.757Z,101435.63
2023-02-15T07:04:24.767Z,101430.59
2023-02-15T07:06:54.496Z,101429.69
2023-02-15T07:09:25.253Z,101424.84
2023-02-15T07:12:13.925Z,101426.41
2023-02-15T07:14:44.067Z,101428.28
2023-02-15T07:17:32.971Z,101424.53
2023-02-15T07:20:04.453Z,101434.75
2023-02-15T07:22:37.448Z,101431.03
2023-02-15T07:25:07.756Z,101433.22
2023-02-15T07:27:39.387Z,101433.09
2023-02-15T07:30:14.003Z,101433.75
2023-02-15T07:32:57.338Z,101437.22
2023-02-15T07:35:27.890Z,101435.91
2023-02-15T07:37:58.695Z,101436.25
2023-02-15T07:40:29.331Z,101433.28
2023-02-15T07:43:02.546Z,101432.59
2023-02-15T07:45:32.613Z,101429.09
2023-02-15T07:48:05.585Z,101432.38
2023-02-15T07:50:36.227Z,101429.69
2023-02-15T07:53:07.870Z,101438.59
2023-02-15T07:55:37.574Z,101439.06
2023-02-15T07:58:09.333Z,101431.06
2023-02-15T08:00:57.655Z,101444.38
2023-02-15T08:03:28.552Z,101434.41
2023-02-15T08:06:01.609Z,101436.97
2023-02-15T08:08:34.779Z,101441.72
2023-02-15T08:11:25.898Z,101437.59
2023-02-15T08:14:00.769Z,101442.03
2023-02-15T08:16:35.233Z,101431.63
2023-02-15T08:19:08.175Z,101427.66
2023-02-15T08:21:40.551Z,101425.69
2023-02-15T08:24:13.087Z,101433.28
2023-02-15T08:26:46.350Z,101423.03
2023-02-15T08:29:20.176Z,101426.06
2023-02-15T08:31:51.928Z,101425.09
2023-02-15T08:34:23.491Z,101430.56
2023-02-15T08:36:54.157Z,101421.16
2023-02-15T08:39:24.727Z,101419.50
2023-02-15T08:41:55.049Z,101425.13
2023-02-15T08:44:27.194Z,101420.22
2023-02-15T08:47:00.043Z,101408.84
2023-02-15T08:49:30.045Z,101418.44
2023-02-15T08:52:00.005Z,101419.91
2023-02-15T08:54:29.967Z,101413.00
2023-02-15T08:57:00.362Z,101410.53
2023-02-15T08:59:32.737Z,101410.84
2023-02-15T09:02:04.408Z,101408.75
2023-02-15T09:04:35.043Z,101415.16
2023-02-15T09:07:05.831Z,101407.25
2023-02-15T09:09:36.345Z,101405.72
2023-02-15T09:12:06.997Z,101411.50
2023-02-15T09:14:39.189Z,101402.75
2023-02-15T09:17:09.566Z,101401.91
2023-02-15T09:19:39.908Z,101398.78
2023-02-15T09:22:10.253Z,101398.78
2023-02-15T09:24:40.660Z,101393.97
2023-02-15T09:27:11.120Z,101393.63
2023-02-15T09:29:43.607Z,101391.66
2023-02-15T09:32:18.984Z,101390.81
2023-02-15T09:34:49.507Z,101388.03
2023-02-15T09:37:19.506Z,101390.50
2023-02-15T09:39:50.424Z,101386.53
2023-02-15T09:42:57.771Z,101374.16
2023-02-15T09:45:48.050Z,101360.94
2023-02-15T09:48:42.817Z,101372.31
2023-02-15T09:51:53.656Z,101367.97
2023-02-15T09:54:49.202Z,101363.22
2023-02-15T09:57:34.098Z,101371.28
2023-02-15T10:00:23.642Z,101363.34
2023-02-15T10:03:19.002Z,101367.44
2023-02-15T10:06:17.223Z,101363.13
2023-02-15T10:09:30.560Z,101375.19
2023-02-15T10:12:25.778Z,101364.44
2023-02-15T10:15:41.459Z,101358.00
2023-02-15T10:18:58.410Z,101356.03
2023-02-15T10:21:47.372Z,101352.38
2023-02-15T10:24:47.204Z,101362.44
2023-02-15T10:27:24.633Z,101364.44
2023-02-15T10:30:11.516Z,101359.66
2023-02-15T10:32:59.342Z,101356.34
2023-02-15T10:35:47.877Z,101352.72
2023-02-15T10:38:34.859Z,101351.09
2023-02-15T10:41:25.818Z,101348.63
2023-02-15T10:44:27.649Z,101352.94
2023-02-15T10:47:25.727Z,101350.47
2023-02-15T10:50:28.285Z,101351.50
2023-02-15T10:53:17.613Z,101359.44
2023-02-15T10:56:01.339Z,101353.31
2023-02-15T10:58:55.690Z,101349.59
2023-02-15T11:01:36.410Z,101346.63
2023-02-15T11:04:43.075Z,101349.31
2023-02-15T11:07:23.686Z,101351.94
2023-02-15T11:10:09.449Z,101346.19
2023-02-15T11:12:40.113Z,101352.03
2023-02-15T11:15:23.388Z,101355.50
2023-02-15T11:18:02.668Z,101362.94
2023-02-15T11:20:39.427Z,101358.34
2023-02-15T11:23:19.865Z,101354.09
2023-02-15T11:26:02.687Z,101370.28
2023-02-15T11:28:41.897Z,101374.09
2023-02-15T11:31:22.606Z,101361.06
2023-02-15T11:34:02.487Z,101369.50
2023-02-15T11:36:38.649Z,101365.59
2023-02-15T11:39:17.810Z,101358.88
2023-02-15T11:41:57.131Z,101361.38
2023-02-15T11:44:35.365Z,101359.88
2023-02-15T11:47:06.002Z,101368.50
2023-02-15T11:49:38.984Z,101367.50
2023-02-15T11:52:15.141Z,101365.69
2023-02-15T11:54:48.963Z,101365.91
2023-02-15T11:57:28.873Z,101377.75
2023-02-15T12:00:10.137Z,101371.66
2023-02-15T12:02:45.713Z,101367.22
2023-02-15T12:05:23.524Z,101360.47
2023-02-15T12:08:00.573Z,101370.50
2023-02-15T12:10:38.378Z,101365.72
2023-02-15T12:13:19.253Z,101363.25
2023-02-15T12:15:52.500Z,101373.97
2023-02-15T12:18:41.836Z,101368.72
2023-02-15T12:21:15.262Z,101369.88
2023-02-15T12:23:53.930Z,101368.56
2023-02-15T12:26:30.808Z,101369.19
2023-02-15T12:29:10.154Z,101359.47
2023-02-15T12:31:47.383Z,101368.22
2023-02-15T12:34:25.945Z,101364.56
2023-02-15T12:37:01.648Z,101368.88
2023-02-15T12:39:33.578Z,101373.63
2023-02-15T12:42:08.944Z,101378.41
2023-02-15T12:44:41.092Z,101370.81
2023-02-15T12:47:28.860Z,101379.72
2023-02-15T12:50:18.244Z,101377.75
2023-02-15T12:52:50.401Z,101379.41
2023-02-15T12:55:31.339Z,101375.44
2023-02-15T12:58:22.955Z,101384.34
2023-02-15T13:01:14.272Z,101381.25
2023-02-15T13:04:02.193Z,101384.50
2023-02-15T13:06:36.200Z,101394.56
2023-02-15T13:09:19.240Z,101388.66
2023-02-15T13:11:51.178Z,101395.06
2023-02-15T13:14:24.432Z,101401.50
2023-02-15T13:17:01.753Z,101393.09
2023-02-15T13:19:38.979Z,101407.41
2023-02-15T13:22:16.978Z,101407.09
2023-02-15T13:24:51.431Z,101411.53
2023-02-15T13:27:26.325Z,101410.72
2023-02-15T13:30:02.289Z,101402.66
2023-02-15T13:32:39.358Z,101415.50
2023-02-15T13:35:19.287Z,101415.16
2023-02-15T13:38:18.532Z,101412.72
2023-02-15T13:40:57.371Z,101425.88
2023-02-15T13:43:49.383Z,101430.31
2023-02-15T13:46:42.635Z,101427.53
2023-02-15T13:49:40.621Z,101425.53
2023-02-15T13:52:23.600Z,101426.03
2023-02-15T13:55:24.444Z,101430.81
2023-02-15T13:58:38.489Z,101419.94
2023-02-15T14:01:22.009Z,101425.53
2023-02-15T14:04:24.125Z,101424.38
2023-02-15T14:07:27.468Z,101422.72
2023-02-15T14:10:22.130Z,101431.47
2023-02-15T14:13:14.517Z,101439.88
2023-02-15T14:15:54.090Z,101444.66
2023-02-15T14:18:39.310Z,101443.50
2023-02-15T14:21:22.975Z,101449.41
2023-02-15T14:24:16.411Z,101448.63
2023-02-15T14:26:58.349Z,101450.25
2023-02-15T14:29:47.361Z,101450.56
2023-02-15T14:32:27.623Z,101449.75
2023-02-15T14:35:02.169Z,101454.53
2023-02-15T14:37:46.356Z,101454.53
2023-02-15T14:40:49.308Z,101457.66
2023-02-15T14:43:34.024Z,101457.97
2023-02-15T14:46:15.368Z,101448.72
2023-02-15T14:48:53.044Z,101453.53
2023-02-15T14:52:09.892Z,101455.81
2023-02-15T14:55:03.964Z,101462.06
2023-02-15T14:57:37.469Z,101461.28
2023-02-15T15:00:41.813Z,101463.56
2023-02-15T15:03:25.912Z,101471.47
2023-02-15T15:06:02.255Z,101463.41
2023-02-15T15:08:41.629Z,101466.53
2023-02-15T15:11:48.333Z,101466.03
2023-02-15T15:14:45.652Z,101472.28
2023-02-15T15:18:04.034Z,101469.00
2023-02-15T15:20:51.187Z,101476.06
2023-02-15T15:23:49.654Z,101474.44
2023-02-15T15:26:50.529Z,101477.56
2023-02-15T15:29:44.051Z,101479.84
2023-02-15T15:32:31.252Z,101491.06
2023-02-15T15:35:27.358Z,101493.34
2023-02-15T15:38:34.919Z,101497.31
2023-02-15T15:41:21.447Z,101503.22
2023-02-15T15:44:58.672Z,101506.69
2023-02-15T15:48:07.029Z,101507.00
2023-02-15T15:50:38.090Z,101513.75
2023-02-15T15:53:23.405Z,101510.97
2023-02-15T15:55:58.814Z,101503.72
2023-02-15T15:58:29.154Z,101511.59
2023-02-15T16:01:11.304Z,101511.28
2023-02-15T16:03:41.864Z,101518.34
2023-02-15T16:06:18.205Z,101523.94
2023-02-15T16:08:48.302Z,101525.13
2023-02-15T16:11:24.317Z,101532.69
2023-02-15T16:13:56.274Z,101530.50
2023-02-15T16:16:32.772Z,101530.50
2023-02-15T16:19:03.873Z,101523.59
2023-02-15T16:21:39.932Z,101539.59
2023-02-15T16:25:28.849Z,101544.69
2023-02-15T16:27:59.652Z,101544.50
2023-02-15T16:30:33.258Z,101552.06
2023-02-15T16:33:15.272Z,101548.44
2023-02-15T16:35:59.864Z,101555.19
2023-02-15T16:39:10.772Z,101550.22
2023-02-15T16:41:43.338Z,101556.97
2023-02-15T16:44:21.865Z,101567.69
2023-02-15T16:46:56.919Z,101570.78
2023-02-15T16:49:32.957Z,101575.56
2023-02-15T16:52:06.963Z,101587.91
2023-02-15T16:54:38.653Z,101580.66
2023-02-15T16:57:16.587Z,101578.19
2023-02-15T16:59:52.385Z,101581.28
2023-02-15T17:02:49.738Z,101584.41
2023-02-15T17:05:24.913Z,101592.31
2023-02-15T17:08:16.574Z,101589.50
2023-02-15T17:11:07.792Z,101589.84
2023-02-15T17:13:38.234Z,101594.59
2023-02-15T17:16:33.221Z,101601.03
2023-02-15T17:19:05.318Z,101598.50
2023-02-15T17:21:44.998Z,101598.50
2023-02-15T17:24:25.010Z,101607.72
2023-02-15T17:27:03.143Z,101603.28
2023-02-15T17:29:40.246Z,101602.47
2023-02-15T17:32:22.118Z,101613.16
2023-02-15T17:35:12.894Z,101606.19
2023-02-15T17:37:51.823Z,101613.28
2023-02-15T17:40:28.326Z,101621.66
2023-02-15T17:42:59.159Z,101617.88
2023-02-15T17:45:39.074Z,101627.69
2023-02-15T17:48:17.081Z,101627.22
2023-02-15T17:50:47.577Z,101620.59
2023-02-15T17:53:22.392Z,101631.28
2023-02-15T17:55:51.002Z,101632.75
2023-02-15T17:58:22.996Z,101637.81
2023-02-15T18:01:14.393Z,101632.06
2023-02-15T18:04:04.325Z,101633.81
2023-02-15T18:06:52.079Z,101634.78
2023-02-15T18:09:43.346Z,101644.97
2023-02-15T18:12:24.345Z,101640.84
2023-02-15T18:14:56.878Z,101652.66
2023-02-15T18:17:35.379Z,101652.13
2023-02-15T18:20:09.846Z,101653.88
2023-02-15T18:22:40.910Z,101647.81
2023-02-15T18:25:17.600Z,101655.69
2023-02-15T18:27:49.057Z,101654.34
2023-02-15T18:30:22.588Z,101659.44
2023-02-15T18:32:57.042Z,101667.28
2023-02-15T18:35:32.887Z,101665.97
2023-02-15T18:38:04.738Z,101659.84
2023-02-15T18:40:37.714Z,101664.13
2023-02-15T18:43:08.134Z,101657.16
2023-02-15T18:45:39.513Z,101668.66
2023-02-15T18:48:10.638Z,101664.50
2023-02-15T18:50:41.775Z,101665.97
2023-02-15T18:53:22.113Z,101663.81
2023-02-15T18:55:55.341Z,101659.69
2023-02-15T18:58:29.482Z,101671.16
2023-02-15T19:01:01.606Z,101659.47
2023-02-15T19:03:32.844Z,101667.34
2023-02-15T19:06:05.855Z,101666.00
2023-02-15T19:08:37.372Z,101657.63
2023-02-15T19:11:20.254Z,101670.75
2023-02-15T19:13:51.348Z,101653.19
2023-02-15T19:16:36.020Z,101667.16
2023-02-15T19:19:07.495Z,101662.19
2023-02-15T19:21:38.004Z,101668.56
2023-02-15T19:24:18.289Z,101669.72
2023-02-15T19:26:52.393Z,101675.63
2023-02-15T19:29:30.127Z,101672.31
2023-02-15T19:32:00.354Z,101667.06
2023-02-15T19:34:31.398Z,101677.41
2023-02-15T19:37:02.596Z,101682.16
2023-02-15T19:39:41.089Z,101688.06
2023-02-15T19:42:19.145Z,101690.84
2023-02-15T19:44:49.749Z,101687.22
2023-02-15T19:47:19.999Z,101689.47
2023-02-15T19:49:50.505Z,101681.44
2023-02-15T19:52:26.193Z,101683.41
2023-02-15T19:54:58.382Z,101694.88
2023-02-15T19:57:32.116Z,101685.69
2023-02-15T20:00:15.912Z,101683.22
2023-02-15T20:02:51.426Z,101696.66
2023-02-15T20:05:23.424Z,101689.41
2023-02-15T20:07:55.938Z,101701.72
2023-02-15T20:10:30.814Z,101698.41
2023-02-15T20:13:04.872Z,101696.75
2023-02-15T20:15:38.106Z,101703.47
2023-02-15T20:18:08.174Z,101711.34
2023-02-15T20:20:49.751Z,101705.22
2023-02-15T20:23:25.154Z,101709.16
2023-02-15T20:25:57.113Z,101709.78
2023-02-15T20:28:31.944Z,101708.13
2023-02-15T20:31:02.580Z,101700.88
2023-02-15T20:33:33.482Z,101708.44
2023-02-15T20:36:03.881Z,101710.38
2023-02-15T20:38:35.863Z,101704.00
2023-02-15T20:41:22.870Z,101699.53
2023-02-15T20:43:55.336Z,101697.88
2023-02-15T20:46:25.931Z,101699.84
2023-02-15T20:48:56.744Z,101697.06
2023-02-15T20:51:27.393Z,101706.25
2023-02-15T20:53:57.735Z,101689.00
2023-02-15T20:56:28.663Z,101705.44
2023-02-15T20:59:00.974Z,101699.84
2023-02-15T21:01:32.837Z,101699.34
2023-02-15T21:04:03.978Z,101693.75
2023-02-15T21:06:34.433Z,101708.53
2023-02-15T21:09:05.196Z,101702.94
2023-02-15T21:11:34.947Z,101701.31
2023-02-15T21:14:06.672Z,101704.09
2023-02-15T21:16:36.960Z,101699.66
2023-02-15T21:19:16.903Z,101708.03
2023-02-15T21:21:48.659Z,101713.09
2023-02-15T21:24:23.799Z,101716.16
2023-02-15T21:26:55.913Z,101714.53
2023-02-15T21:29:31.245Z,101713.69
2023-02-15T21:32:03.199Z,101713.16
2023-02-15T21:34:33.692Z,101707.91
2023-02-15T21:37:05.435Z,101711.03
2023-02-15T21:39:39.735Z,101707.72
2023-02-15T21:42:30.310Z,101712.75
2023-02-15T21:45:18.668Z,101714.50
2023-02-15T21:47:55.475Z,101709.00
2023-02-15T21:50:44.686Z,101700.94
2023-02-15T21:53:25.418Z,101704.03
2023-02-15T21:56:00.309Z,101706.28
2023-02-15T21:58:33.608Z,101697.09
2023-02-15T22:01:06.070Z,101706.28
2023-02-15T22:03:40.119Z,101703.50
2023-02-15T22:06:15.722Z,101704.34
2023-02-15T22:08:46.349Z,101706.28
2023-02-15T22:11:19.152Z,101706.28
2023-02-15T22:13:51.434Z,101699.09
2023-02-15T22:16:26.089Z,101709.41
2023-02-15T22:18:56.633Z,101713.03
2023-02-15T22:21:27.608Z,101710.53
2023-02-15T22:23:57.862Z,101717.25
2023-02-15T22:26:29.113Z,101716.75
2023-02-15T22:29:00.687Z,101715.38
2023-02-15T22:31:33.123Z,101707.41
2023-02-15T22:34:03.547Z,101717.00
2023-02-15T22:36:34.454Z,101714.81
2023-02-15T22:39:04.666Z,101721.31
2023-02-15T22:41:44.339Z,101712.75
2023-02-15T22:44:18.639Z,101714.78
2023-02-15T22:46:55.220Z,101716.81
2023-02-15T22:49:25.747Z,101716.41
2023-02-15T22:51:56.426Z,101714.84
2023-02-15T22:54:27.738Z,101716.56
2023-02-15T22:56:58.173Z,101716.03
2023-02-15T22:59:34.655Z,101719.44
2023-02-15T23:02:08.263Z,101715.28
2023-02-15T23:04:38.040Z,101713.13
2023-02-15T23:07:15.507Z,101717.03
2023-02-15T23:09:46.651Z,101708.16
2023-02-15T23:12:28.514Z,101718.78
2023-02-15T23:15:00.780Z,101714.63
2023-02-15T23:17:32.178Z,101714.91
2023-02-15T23:20:03.268Z,101721.63
2023-02-15T23:22:33.739Z,101720.78
2023-02-15T23:25:04.248Z,101706.84
2023-02-15T23:27:50.443Z,101712.72
2023-02-15T23:30:21.583Z,101710.53
2023-02-15T23:32:55.691Z,101715.56
2023-02-15T23:35:26.456Z,101717.84
2023-02-15T23:37:56.418Z,101716.78
2023-02-15T23:40:51.649Z,101718.22
2023-02-15T23:43:25.497Z,101705.44
2023-02-15T23:45:55.340Z,101718.50
2023-02-15T23:48:40.456Z,101726.59
2023-02-15T23:51:14.053Z,101716.84
2023-02-15T23:53:44.112Z,101722.41
2023-02-15T23:56:16.160Z,101722.72
2023-02-15T23:58:48.987Z,101711.59
